sensor_id;sensor_type;location;lat;lon;timestamp;P1;durP1;ratioP1;P2;durP2;ratioP2
66175;SDS011;52977;44.816;20.538;2023-04-03T00:01:19;8.68;;;4.38;;
66175;SDS011;52977;44.816;20.538;2023-04-03T00:03:45;9.55;;;5.03;;
66175;SDS011;52977;44.816;20.538;2023-04-03T00:06:12;10.93;;;5.55;;
66175;SDS011;52977;44.816;20.538;2023-04-03T00:08:39;12.20;;;5.28;;
66175;SDS011;52977;44.816;20.538;2023-04-03T00:11:06;9.43;;;5.05;;
66175;SDS011;52977;44.816;20.538;2023-04-03T00:13:33;10.30;;;5.40;;
66175;SDS011;52977;44.816;20.538;2023-04-03T00:16:00;9.07;;;4.78;;
66175;SDS011;52977;44.816;20.538;2023-04-03T00:18:26;10.02;;;4.97;;
66175;SDS011;52977;44.816;20.538;2023-04-03T00:20:52;11.18;;;4.60;;
66175;SDS011;52977;44.816;20.538;2023-04-03T00:23:18;8.23;;;4.50;;
66175;SDS011;52977;44.816;20.538;2023-04-03T00:25:44;8.77;;;4.72;;
66175;SDS011;52977;44.816;20.538;2023-04-03T00:28:09;9.82;;;4.50;;
66175;SDS011;52977;44.816;20.538;2023-04-03T00:30:35;9.98;;;4.45;;
66175;SDS011;52977;44.816;20.538;2023-04-03T00:33:01;9.43;;;4.30;;
66175;SDS011;52977;44.816;20.538;2023-04-03T00:35:27;7.50;;;3.88;;
66175;SDS011;52977;44.816;20.538;2023-04-03T00:37:53;8.43;;;4.60;;
66175;SDS011;52977;44.816;20.538;2023-04-03T00:40:20;10.35;;;4.13;;
66175;SDS011;52977;44.816;20.538;2023-04-03T00:42:48;6.32;;;3.55;;
66175;SDS011;52977;44.816;20.538;2023-04-03T00:47:55;7.80;;;3.85;;
66175;SDS011;52977;44.816;20.538;2023-04-03T00:50:26;7.25;;;3.78;;
66175;SDS011;52977;44.816;20.538;2023-04-03T00:52:54;6.97;;;3.53;;
66175;SDS011;52977;44.816;20.538;2023-04-03T00:55:21;6.90;;;3.55;;
66175;SDS011;52977;44.816;20.538;2023-04-03T00:57:48;8.52;;;3.53;;
66175;SDS011;52977;44.816;20.538;2023-04-03T01:00:16;6.60;;;3.30;;
66175;SDS011;52977;44.816;20.538;2023-04-03T01:02:45;6.65;;;3.60;;
66175;SDS011;52977;44.816;20.538;2023-04-03T01:05:13;6.75;;;3.58;;
66175;SDS011;52977;44.816;20.538;2023-04-03T01:07:42;6.50;;;3.55;;
66175;SDS011;52977;44.816;20.538;2023-04-03T01:10:09;7.03;;;3.60;;
66175;SDS011;52977;44.816;20.538;2023-04-03T01:12:40;8.48;;;3.88;;
66175;SDS011;52977;44.816;20.538;2023-04-03T01:15:09;5.65;;;3.42;;
66175;SDS011;52977;44.816;20.538;2023-04-03T01:17:49;6.60;;;3.60;;
66175;SDS011;52977;44.816;20.538;2023-04-03T01:25:55;6.70;;;3.72;;
66175;SDS011;52977;44.816;20.538;2023-04-03T01:28:33;8.30;;;4.18;;
66175;SDS011;52977;44.816;20.538;2023-04-03T01:33:53;8.68;;;4.13;;
66175;SDS011;52977;44.816;20.538;2023-04-03T01:36:28;7.35;;;3.90;;
66175;SDS011;52977;44.816;20.538;2023-04-03T01:38:57;8.32;;;4.53;;
66175;SDS011;52977;44.816;20.538;2023-04-03T01:41:25;13.93;;;4.22;;
66175;SDS011;52977;44.816;20.538;2023-04-03T01:43:57;11.30;;;4.82;;
66175;SDS011;52977;44.816;20.538;2023-04-03T01:46:23;10.70;;;5.18;;
66175;SDS011;52977;44.816;20.538;2023-04-03T01:48:50;15.52;;;5.35;;
66175;SDS011;52977;44.816;20.538;2023-04-03T01:51:16;11.85;;;5.25;;
66175;SDS011;52977;44.816;20.538;2023-04-03T01:53:42;11.65;;;5.68;;
66175;SDS011;52977;44.816;20.538;2023-04-03T01:56:09;10.68;;;4.72;;
66175;SDS011;52977;44.816;20.538;2023-04-03T01:58:35;14.07;;;5.22;;
66175;SDS011;52977;44.816;20.538;2023-04-03T02:01:02;9.75;;;4.88;;
66175;SDS011;52977;44.816;20.538;2023-04-03T02:03:28;12.30;;;5.32;;
66175;SDS011;52977;44.816;20.538;2023-04-03T02:05:54;14.05;;;5.43;;
66175;SDS011;52977;44.816;20.538;2023-04-03T02:08:20;10.93;;;5.15;;
66175;SDS011;52977;44.816;20.538;2023-04-03T02:10:48;12.05;;;5.50;;
66175;SDS011;52977;44.816;20.538;2023-04-03T02:13:15;11.05;;;4.80;;
66175;SDS011;52977;44.816;20.538;2023-04-03T02:15:41;13.57;;;4.88;;
66175;SDS011;52977;44.816;20.538;2023-04-03T02:18:08;11.98;;;5.22;;
66175;SDS011;52977;44.816;20.538;2023-04-03T02:20:35;11.13;;;5.18;;
66175;SDS011;52977;44.816;20.538;2023-04-03T02:23:01;11.07;;;5.47;;
66175;SDS011;52977;44.816;20.538;2023-04-03T02:25:28;9.95;;;4.85;;
66175;SDS011;52977;44.816;20.538;2023-04-03T02:27:56;10.57;;;4.82;;
66175;SDS011;52977;44.816;20.538;2023-04-03T02:30:22;11.15;;;5.03;;
66175;SDS011;52977;44.816;20.538;2023-04-03T02:32:48;11.77;;;5.53;;
66175;SDS011;52977;44.816;20.538;2023-04-03T02:35:14;11.48;;;5.55;;
66175;SDS011;52977;44.816;20.538;2023-04-03T02:37:41;10.75;;;4.97;;
66175;SDS011;52977;44.816;20.538;2023-04-03T02:40:07;11.45;;;5.80;;
66175;SDS011;52977;44.816;20.538;2023-04-03T02:42:34;10.68;;;5.15;;
66175;SDS011;52977;44.816;20.538;2023-04-03T02:45:02;13.40;;;5.95;;
66175;SDS011;52977;44.816;20.538;2023-04-03T02:47:29;10.23;;;4.75;;
66175;SDS011;52977;44.816;20.538;2023-04-03T02:49:55;10.52;;;5.28;;
66175;SDS011;52977;44.816;20.538;2023-04-03T02:52:21;10.85;;;5.68;;
66175;SDS011;52977;44.816;20.538;2023-04-03T02:54:49;11.52;;;5.63;;
66175;SDS011;52977;44.816;20.538;2023-04-03T02:57:15;11.32;;;5.78;;
66175;SDS011;52977;44.816;20.538;2023-04-03T02:59:42;11.98;;;5.70;;
66175;SDS011;52977;44.816;20.538;2023-04-03T03:02:10;11.70;;;5.47;;
66175;SDS011;52977;44.816;20.538;2023-04-03T03:04:35;11.88;;;5.72;;
66175;SDS011;52977;44.816;20.538;2023-04-03T03:07:02;9.77;;;5.18;;
66175;SDS011;52977;44.816;20.538;2023-04-03T03:09:28;10.85;;;5.70;;
66175;SDS011;52977;44.816;20.538;2023-04-03T03:11:55;11.73;;;5.88;;
66175;SDS011;52977;44.816;20.538;2023-04-03T03:14:22;11.38;;;5.22;;
66175;SDS011;52977;44.816;20.538;2023-04-03T03:16:48;10.60;;;5.90;;
66175;SDS011;52977;44.816;20.538;2023-04-03T03:19:15;11.45;;;6.25;;
66175;SDS011;52977;44.816;20.538;2023-04-03T03:21:41;15.45;;;6.07;;
66175;SDS011;52977;44.816;20.538;2023-04-03T03:24:06;14.35;;;5.75;;
66175;SDS011;52977;44.816;20.538;2023-04-03T03:26:32;11.70;;;6.05;;
66175;SDS011;52977;44.816;20.538;2023-04-03T03:28:58;12.05;;;6.15;;
66175;SDS011;52977;44.816;20.538;2023-04-03T03:31:25;12.95;;;5.90;;
66175;SDS011;52977;44.816;20.538;2023-04-03T03:33:51;10.90;;;5.68;;
66175;SDS011;52977;44.816;20.538;2023-04-03T03:36:17;10.63;;;5.70;;
66175;SDS011;52977;44.816;20.538;2023-04-03T03:38:44;10.02;;;5.50;;
66175;SDS011;52977;44.816;20.538;2023-04-03T03:41:10;13.88;;;6.88;;
66175;SDS011;52977;44.816;20.538;2023-04-03T03:43:36;12.75;;;6.47;;
66175;SDS011;52977;44.816;20.538;2023-04-03T03:46:04;13.73;;;5.97;;
66175;SDS011;52977;44.816;20.538;2023-04-03T03:48:30;12.20;;;6.03;;
66175;SDS011;52977;44.816;20.538;2023-04-03T03:50:56;11.90;;;6.03;;
66175;SDS011;52977;44.816;20.538;2023-04-03T03:53:25;14.02;;;6.32;;
66175;SDS011;52977;44.816;20.538;2023-04-03T03:55:55;10.52;;;5.78;;
66175;SDS011;52977;44.816;20.538;2023-04-03T03:58:24;10.85;;;5.25;;
66175;SDS011;52977;44.816;20.538;2023-04-03T04:00:51;14.73;;;6.90;;
66175;SDS011;52977;44.816;20.538;2023-04-03T04:03:17;14.70;;;6.32;;
66175;SDS011;52977;44.816;20.538;2023-04-03T04:05:46;13.30;;;5.78;;
66175;SDS011;52977;44.816;20.538;2023-04-03T04:08:12;14.15;;;6.55;;
66175;SDS011;52977;44.816;20.538;2023-04-03T04:10:38;13.50;;;6.43;;
66175;SDS011;52977;44.816;20.538;2023-04-03T04:13:05;12.75;;;6.60;;
66175;SDS011;52977;44.816;20.538;2023-04-03T04:15:30;14.82;;;6.80;;
66175;SDS011;52977;44.816;20.538;2023-04-03T04:17:57;13.55;;;6.30;;
66175;SDS011;52977;44.816;20.538;2023-04-03T04:20:23;13.35;;;6.40;;
66175;SDS011;52977;44.816;20.538;2023-04-03T04:22:50;12.48;;;6.20;;
66175;SDS011;52977;44.816;20.538;2023-04-03T04:25:17;12.73;;;6.70;;
66175;SDS011;52977;44.816;20.538;2023-04-03T04:27:43;13.32;;;6.97;;
66175;SDS011;52977;44.816;20.538;2023-04-03T04:30:12;13.77;;;6.10;;
66175;SDS011;52977;44.816;20.538;2023-04-03T04:32:39;15.52;;;6.40;;
66175;SDS011;52977;44.816;20.538;2023-04-03T04:35:06;11.32;;;5.60;;
66175;SDS011;52977;44.816;20.538;2023-04-03T04:37:36;12.32;;;6.43;;
66175;SDS011;52977;44.816;20.538;2023-04-03T04:40:02;15.57;;;7.07;;
66175;SDS011;52977;44.816;20.538;2023-04-03T04:42:30;13.35;;;6.38;;
66175;SDS011;52977;44.816;20.538;2023-04-03T04:44:56;12.13;;;6.13;;
66175;SDS011;52977;44.816;20.538;2023-04-03T04:47:23;12.25;;;5.80;;
66175;SDS011;52977;44.816;20.538;2023-04-03T04:49:49;16.65;;;6.75;;
66175;SDS011;52977;44.816;20.538;2023-04-03T04:52:16;14.75;;;6.35;;
66175;SDS011;52977;44.816;20.538;2023-04-03T04:54:44;14.05;;;6.57;;
66175;SDS011;52977;44.816;20.538;2023-04-03T04:57:10;15.68;;;6.97;;
66175;SDS011;52977;44.816;20.538;2023-04-03T04:59:37;15.23;;;6.10;;
66175;SDS011;52977;44.816;20.538;2023-04-03T05:02:05;13.95;;;6.03;;
66175;SDS011;52977;44.816;20.538;2023-04-03T05:04:32;12.02;;;6.35;;
66175;SDS011;52977;44.816;20.538;2023-04-03T05:07:04;12.73;;;6.32;;
66175;SDS011;52977;44.816;20.538;2023-04-03T05:09:34;13.15;;;6.47;;
66175;SDS011;52977;44.816;20.538;2023-04-03T05:12:01;17.27;;;7.40;;
66175;SDS011;52977;44.816;20.538;2023-04-03T05:14:34;15.93;;;6.78;;
66175;SDS011;52977;44.816;20.538;2023-04-03T05:17:05;13.52;;;6.68;;
66175;SDS011;52977;44.816;20.538;2023-04-03T05:19:34;15.73;;;6.85;;
66175;SDS011;52977;44.816;20.538;2023-04-03T05:22:02;16.90;;;7.10;;
66175;SDS011;52977;44.816;20.538;2023-04-03T05:24:29;14.00;;;7.38;;
66175;SDS011;52977;44.816;20.538;2023-04-03T05:26:55;16.50;;;7.80;;
66175;SDS011;52977;44.816;20.538;2023-04-03T05:29:21;15.55;;;6.93;;
66175;SDS011;52977;44.816;20.538;2023-04-03T05:31:49;16.00;;;6.65;;
66175;SDS011;52977;44.816;20.538;2023-04-03T05:34:16;15.82;;;6.43;;
66175;SDS011;52977;44.816;20.538;2023-04-03T05:36:44;12.07;;;5.97;;
66175;SDS011;52977;44.816;20.538;2023-04-03T05:39:13;12.60;;;5.50;;
66175;SDS011;52977;44.816;20.538;2023-04-03T05:41:42;13.30;;;5.75;;
66175;SDS011;52977;44.816;20.538;2023-04-03T05:44:08;12.68;;;6.00;;
66175;SDS011;52977;44.816;20.538;2023-04-03T05:46:35;13.98;;;5.82;;
66175;SDS011;52977;44.816;20.538;2023-04-03T05:49:04;16.08;;;6.75;;
66175;SDS011;52977;44.816;20.538;2023-04-03T05:51:34;14.35;;;5.95;;
66175;SDS011;52977;44.816;20.538;2023-04-03T05:56:46;16.33;;;7.22;;
66175;SDS011;52977;44.816;20.538;2023-04-03T05:59:12;18.30;;;7.80;;
66175;SDS011;52977;44.816;20.538;2023-04-03T06:01:39;15.38;;;6.93;;
66175;SDS011;52977;44.816;20.538;2023-04-03T06:04:05;16.00;;;6.85;;
66175;SDS011;52977;44.816;20.538;2023-04-03T06:06:47;13.60;;;6.47;;
66175;SDS011;52977;44.816;20.538;2023-04-03T06:09:19;17.88;;;7.20;;
66175;SDS011;52977;44.816;20.538;2023-04-03T06:11:46;15.65;;;6.55;;
66175;SDS011;52977;44.816;20.538;2023-04-03T06:14:13;13.23;;;6.55;;
66175;SDS011;52977;44.816;20.538;2023-04-03T06:16:39;13.57;;;6.25;;
66175;SDS011;52977;44.816;20.538;2023-04-03T06:19:09;14.73;;;6.30;;
66175;SDS011;52977;44.816;20.538;2023-04-03T06:21:40;13.70;;;6.88;;
66175;SDS011;52977;44.816;20.538;2023-04-03T06:24:07;16.88;;;6.70;;
66175;SDS011;52977;44.816;20.538;2023-04-03T06:26:33;14.50;;;6.63;;
66175;SDS011;52977;44.816;20.538;2023-04-03T06:29:00;13.50;;;6.13;;
66175;SDS011;52977;44.816;20.538;2023-04-03T06:31:27;13.85;;;6.53;;
66175;SDS011;52977;44.816;20.538;2023-04-03T06:33:53;11.45;;;5.07;;
66175;SDS011;52977;44.816;20.538;2023-04-03T06:36:19;11.57;;;5.55;;
66175;SDS011;52977;44.816;20.538;2023-04-03T06:38:47;12.73;;;5.93;;
66175;SDS011;52977;44.816;20.538;2023-04-03T06:41:13;12.73;;;5.35;;
66175;SDS011;52977;44.816;20.538;2023-04-03T06:43:39;12.52;;;5.28;;
66175;SDS011;52977;44.816;20.538;2023-04-03T06:46:06;11.68;;;5.60;;
66175;SDS011;52977;44.816;20.538;2023-04-03T06:48:31;10.85;;;4.50;;
66175;SDS011;52977;44.816;20.538;2023-04-03T06:50:58;6.05;;;3.50;;
66175;SDS011;52977;44.816;20.538;2023-04-03T06:53:24;11.07;;;3.90;;
66175;SDS011;52977;44.816;20.538;2023-04-03T06:55:50;7.47;;;3.40;;
66175;SDS011;52977;44.816;20.538;2023-04-03T06:58:17;5.63;;;2.80;;
66175;SDS011;52977;44.816;20.538;2023-04-03T07:00:43;6.78;;;3.10;;
66175;SDS011;52977;44.816;20.538;2023-04-03T07:03:09;6.53;;;3.08;;
66175;SDS011;52977;44.816;20.538;2023-04-03T07:05:35;7.63;;;3.20;;
66175;SDS011;52977;44.816;20.538;2023-04-03T07:08:01;7.57;;;2.90;;
66175;SDS011;52977;44.816;20.538;2023-04-03T07:10:27;6.72;;;2.75;;
66175;SDS011;52977;44.816;20.538;2023-04-03T07:12:53;7.95;;;3.03;;
66175;SDS011;52977;44.816;20.538;2023-04-03T07:15:19;7.00;;;3.05;;
66175;SDS011;52977;44.816;20.538;2023-04-03T07:17:46;5.85;;;2.67;;
66175;SDS011;52977;44.816;20.538;2023-04-03T07:20:12;6.90;;;2.60;;
66175;SDS011;52977;44.816;20.538;2023-04-03T07:22:38;5.78;;;2.67;;
66175;SDS011;52977;44.816;20.538;2023-04-03T07:25:05;5.65;;;3.00;;
66175;SDS011;52977;44.816;20.538;2023-04-03T07:27:33;7.22;;;2.67;;
66175;SDS011;52977;44.816;20.538;2023-04-03T07:29:59;6.32;;;2.70;;
66175;SDS011;52977;44.816;20.538;2023-04-03T07:32:26;6.80;;;3.15;;
66175;SDS011;52977;44.816;20.538;2023-04-03T07:34:52;5.95;;;2.70;;
66175;SDS011;52977;44.816;20.538;2023-04-03T07:37:19;4.72;;;2.25;;
66175;SDS011;52977;44.816;20.538;2023-04-03T07:39:46;8.82;;;2.58;;
66175;SDS011;52977;44.816;20.538;2023-04-03T07:42:12;6.75;;;2.70;;
66175;SDS011;52977;44.816;20.538;2023-04-03T07:44:38;6.47;;;2.90;;
66175;SDS011;52977;44.816;20.538;2023-04-03T07:47:04;5.45;;;2.45;;
66175;SDS011;52977;44.816;20.538;2023-04-03T07:49:30;5.13;;;2.47;;
66175;SDS011;52977;44.816;20.538;2023-04-03T07:51:56;6.45;;;2.47;;
66175;SDS011;52977;44.816;20.538;2023-04-03T07:54:22;7.53;;;2.72;;
66175;SDS011;52977;44.816;20.538;2023-04-03T07:56:49;6.05;;;2.42;;
66175;SDS011;52977;44.816;20.538;2023-04-03T07:59:15;4.47;;;2.10;;
66175;SDS011;52977;44.816;20.538;2023-04-03T08:01:41;6.63;;;2.88;;
66175;SDS011;52977;44.816;20.538;2023-04-03T08:04:08;6.40;;;2.50;;
66175;SDS011;52977;44.816;20.538;2023-04-03T08:06:34;5.15;;;2.20;;
66175;SDS011;52977;44.816;20.538;2023-04-03T08:09:02;5.65;;;2.65;;
66175;SDS011;52977;44.816;20.538;2023-04-03T08:11:30;5.93;;;2.50;;
66175;SDS011;52977;44.816;20.538;2023-04-03T08:13:56;8.32;;;2.55;;
66175;SDS011;52977;44.816;20.538;2023-04-03T08:16:23;6.72;;;2.60;;
66175;SDS011;52977;44.816;20.538;2023-04-03T08:18:52;4.63;;;2.03;;
66175;SDS011;52977;44.816;20.538;2023-04-03T08:21:18;6.60;;;2.30;;
66175;SDS011;52977;44.816;20.538;2023-04-03T08:23:44;4.72;;;2.30;;
66175;SDS011;52977;44.816;20.538;2023-04-03T08:26:15;5.30;;;2.15;;
66175;SDS011;52977;44.816;20.538;2023-04-03T08:28:42;5.90;;;2.45;;
66175;SDS011;52977;44.816;20.538;2023-04-03T08:31:10;5.25;;;2.13;;
66175;SDS011;52977;44.816;20.538;2023-04-03T08:33:39;4.45;;;2.13;;
66175;SDS011;52977;44.816;20.538;2023-04-03T08:36:16;6.22;;;2.00;;
66175;SDS011;52977;44.816;20.538;2023-04-03T08:38:44;4.18;;;2.10;;
66175;SDS011;52977;44.816;20.538;2023-04-03T08:41:15;5.55;;;1.98;;
66175;SDS011;52977;44.816;20.538;2023-04-03T08:43:58;5.80;;;2.20;;
66175;SDS011;52977;44.816;20.538;2023-04-03T08:47:00;6.43;;;2.28;;
66175;SDS011;52977;44.816;20.538;2023-04-03T08:49:30;4.25;;;1.95;;
66175;SDS011;52977;44.816;20.538;2023-04-03T08:51:59;4.65;;;2.10;;
66175;SDS011;52977;44.816;20.538;2023-04-03T08:54:35;4.22;;;2.22;;
66175;SDS011;52977;44.816;20.538;2023-04-03T08:57:14;5.60;;;2.10;;
66175;SDS011;52977;44.816;20.538;2023-04-03T08:59:41;4.80;;;2.00;;
66175;SDS011;52977;44.816;20.538;2023-04-03T09:04:58;5.35;;;2.35;;
66175;SDS011;52977;44.816;20.538;2023-04-03T09:07:29;6.13;;;2.13;;
66175;SDS011;52977;44.816;20.538;2023-04-03T09:10:02;5.35;;;1.75;;
66175;SDS011;52977;44.816;20.538;2023-04-03T09:12:34;4.80;;;2.20;;
66175;SDS011;52977;44.816;20.538;2023-04-03T09:17:57;5.25;;;2.35;;
66175;SDS011;52977;44.816;20.538;2023-04-03T09:23:30;4.35;;;2.20;;
66175;SDS011;52977;44.816;20.538;2023-04-03T09:26:08;5.03;;;2.65;;
66175;SDS011;52977;44.816;20.538;2023-04-03T09:28:40;5.25;;;2.28;;
66175;SDS011;52977;44.816;20.538;2023-04-03T09:31:24;5.25;;;2.25;;
66175;SDS011;52977;44.816;20.538;2023-04-03T09:33:54;6.07;;;2.58;;
66175;SDS011;52977;44.816;20.538;2023-04-03T09:41:42;5.95;;;2.63;;
66175;SDS011;52977;44.816;20.538;2023-04-03T09:44:22;6.13;;;2.22;;
66175;SDS011;52977;44.816;20.538;2023-04-03T09:47:19;6.65;;;2.50;;
66175;SDS011;52977;44.816;20.538;2023-04-03T09:49:51;5.40;;;2.42;;
66175;SDS011;52977;44.816;20.538;2023-04-03T09:52:35;5.47;;;2.50;;
66175;SDS011;52977;44.816;20.538;2023-04-03T09:55:07;5.90;;;2.42;;
66175;SDS011;52977;44.816;20.538;2023-04-03T09:57:41;5.53;;;2.60;;
66175;SDS011;52977;44.816;20.538;2023-04-03T10:00:19;8.02;;;2.70;;
66175;SDS011;52977;44.816;20.538;2023-04-03T10:02:49;5.53;;;2.20;;
66175;SDS011;52977;44.816;20.538;2023-04-03T10:05:36;7.03;;;3.08;;
66175;SDS011;52977;44.816;20.538;2023-04-03T10:10:43;6.35;;;3.08;;
66175;SDS011;52977;44.816;20.538;2023-04-03T10:13:17;6.65;;;2.45;;
66175;SDS011;52977;44.816;20.538;2023-04-03T10:24:36;6.20;;;3.00;;
66175;SDS011;52977;44.816;20.538;2023-04-03T10:27:10;5.05;;;2.25;;
66175;SDS011;52977;44.816;20.538;2023-04-03T10:29:46;5.10;;;2.70;;
66175;SDS011;52977;44.816;20.538;2023-04-03T10:32:26;6.70;;;2.42;;
66175;SDS011;52977;44.816;20.538;2023-04-03T10:40:22;8.85;;;2.70;;
66175;SDS011;52977;44.816;20.538;2023-04-03T10:43:24;6.57;;;2.65;;
66175;SDS011;52977;44.816;20.538;2023-04-03T10:45:56;5.45;;;2.17;;
66175;SDS011;52977;44.816;20.538;2023-04-03T10:51:37;7.50;;;2.60;;
66175;SDS011;52977;44.816;20.538;2023-04-03T10:54:24;5.18;;;2.33;;
66175;SDS011;52977;44.816;20.538;2023-04-03T10:56:53;5.90;;;2.30;;
66175;SDS011;52977;44.816;20.538;2023-04-03T11:01:53;5.93;;;2.85;;
66175;SDS011;52977;44.816;20.538;2023-04-03T11:04:23;7.85;;;2.55;;
66175;SDS011;52977;44.816;20.538;2023-04-03T11:06:53;6.43;;;2.30;;
66175;SDS011;52977;44.816;20.538;2023-04-03T11:09:31;7.05;;;2.63;;
66175;SDS011;52977;44.816;20.538;2023-04-03T11:12:04;5.95;;;2.78;;
66175;SDS011;52977;44.816;20.538;2023-04-03T11:14:37;5.90;;;2.15;;
66175;SDS011;52977;44.816;20.538;2023-04-03T11:19:49;5.85;;;2.28;;
66175;SDS011;52977;44.816;20.538;2023-04-03T11:22:24;5.13;;;2.40;;
66175;SDS011;52977;44.816;20.538;2023-04-03T11:27:32;6.35;;;2.40;;
66175;SDS011;52977;44.816;20.538;2023-04-03T11:30:09;6.72;;;1.90;;
66175;SDS011;52977;44.816;20.538;2023-04-03T11:35:41;5.65;;;2.30;;
66175;SDS011;52977;44.816;20.538;2023-04-03T11:38:10;5.32;;;2.20;;
66175;SDS011;52977;44.816;20.538;2023-04-03T11:40:45;6.00;;;2.20;;
66175;SDS011;52977;44.816;20.538;2023-04-03T11:43:31;5.68;;;2.50;;
66175;SDS011;52977;44.816;20.538;2023-04-03T11:45:59;5.82;;;2.25;;
66175;SDS011;52977;44.816;20.538;2023-04-03T11:50:55;6.28;;;2.42;;
66175;SDS011;52977;44.816;20.538;2023-04-03T11:55:59;6.30;;;2.38;;
66175;SDS011;52977;44.816;20.538;2023-04-03T11:58:27;10.07;;;2.60;;
66175;SDS011;52977;44.816;20.538;2023-04-03T12:21:19;5.55;;;2.45;;
66175;SDS011;52977;44.816;20.538;2023-04-03T12:24:01;5.07;;;2.17;;
66175;SDS011;52977;44.816;20.538;2023-04-03T12:29:46;5.13;;;2.22;;
66175;SDS011;52977;44.816;20.538;2023-04-03T12:35:22;7.65;;;3.17;;
66175;SDS011;52977;44.816;20.538;2023-04-03T12:46:24;5.50;;;2.30;;
66175;SDS011;52977;44.816;20.538;2023-04-03T12:48:55;7.75;;;3.05;;
66175;SDS011;52977;44.816;20.538;2023-04-03T12:54:04;6.10;;;2.67;;
66175;SDS011;52977;44.816;20.538;2023-04-03T12:56:40;5.93;;;2.60;;
66175;SDS011;52977;44.816;20.538;2023-04-03T12:59:21;6.05;;;2.80;;
66175;SDS011;52977;44.816;20.538;2023-04-03T13:02:01;5.38;;;2.40;;
66175;SDS011;52977;44.816;20.538;2023-04-03T13:04:28;6.45;;;3.17;;
66175;SDS011;52977;44.816;20.538;2023-04-03T13:06:56;6.95;;;3.05;;
66175;SDS011;52977;44.816;20.538;2023-04-03T13:12:01;4.57;;;2.40;;
66175;SDS011;52977;44.816;20.538;2023-04-03T13:14:34;6.13;;;2.25;;
66175;SDS011;52977;44.816;20.538;2023-04-03T13:17:16;6.75;;;2.95;;
66175;SDS011;52977;44.816;20.538;2023-04-03T13:19:43;7.18;;;3.33;;
66175;SDS011;52977;44.816;20.538;2023-04-03T13:22:34;8.35;;;3.03;;
66175;SDS011;52977;44.816;20.538;2023-04-03T13:25:09;6.32;;;3.10;;
66175;SDS011;52977;44.816;20.538;2023-04-03T13:27:39;11.07;;;3.80;;
66175;SDS011;52977;44.816;20.538;2023-04-03T13:33:05;7.75;;;3.50;;
66175;SDS011;52977;44.816;20.538;2023-04-03T13:35:44;6.38;;;2.88;;
66175;SDS011;52977;44.816;20.538;2023-04-03T13:40:53;7.18;;;2.90;;
66175;SDS011;52977;44.816;20.538;2023-04-03T13:43:23;8.27;;;2.85;;
66175;SDS011;52977;44.816;20.538;2023-04-03T13:48:42;5.53;;;2.70;;
66175;SDS011;52977;44.816;20.538;2023-04-03T13:53:45;6.70;;;3.10;;
66175;SDS011;52977;44.816;20.538;2023-04-03T13:56:24;9.35;;;3.40;;
66175;SDS011;52977;44.816;20.538;2023-04-03T13:59:00;6.07;;;2.70;;
66175;SDS011;52977;44.816;20.538;2023-04-03T14:06:48;6.50;;;3.15;;
66175;SDS011;52977;44.816;20.538;2023-04-03T14:09:16;6.53;;;2.70;;
66175;SDS011;52977;44.816;20.538;2023-04-03T14:11:43;7.72;;;2.95;;
66175;SDS011;52977;44.816;20.538;2023-04-03T14:14:12;7.75;;;2.75;;
66175;SDS011;52977;44.816;20.538;2023-04-03T14:16:47;9.57;;;3.38;;
66175;SDS011;52977;44.816;20.538;2023-04-03T14:19:19;6.13;;;2.65;;
66175;SDS011;52977;44.816;20.538;2023-04-03T14:21:48;5.10;;;2.40;;
66175;SDS011;52977;44.816;20.538;2023-04-03T14:24:16;5.40;;;2.60;;
66175;SDS011;52977;44.816;20.538;2023-04-03T14:26:43;6.28;;;2.63;;
66175;SDS011;52977;44.816;20.538;2023-04-03T14:29:09;7.03;;;3.28;;
66175;SDS011;52977;44.816;20.538;2023-04-03T14:31:37;8.65;;;2.92;;
66175;SDS011;52977;44.816;20.538;2023-04-03T14:34:03;7.05;;;2.47;;
66175;SDS011;52977;44.816;20.538;2023-04-03T14:36:29;6.80;;;2.65;;
66175;SDS011;52977;44.816;20.538;2023-04-03T14:38:55;11.10;;;2.47;;
66175;SDS011;52977;44.816;20.538;2023-04-03T14:41:22;7.43;;;2.88;;
66175;SDS011;52977;44.816;20.538;2023-04-03T14:43:49;5.80;;;2.08;;
66175;SDS011;52977;44.816;20.538;2023-04-03T14:46:16;8.10;;;2.85;;
66175;SDS011;52977;44.816;20.538;2023-04-03T14:48:47;6.32;;;2.38;;
66175;SDS011;52977;44.816;20.538;2023-04-03T14:51:14;6.97;;;2.65;;
66175;SDS011;52977;44.816;20.538;2023-04-03T14:53:40;11.85;;;2.85;;
66175;SDS011;52977;44.816;20.538;2023-04-03T14:58:54;6.93;;;2.30;;
66175;SDS011;52977;44.816;20.538;2023-04-03T15:01:22;6.47;;;2.45;;
66175;SDS011;52977;44.816;20.538;2023-04-03T15:03:48;5.45;;;1.90;;
66175;SDS011;52977;44.816;20.538;2023-04-03T15:06:15;5.65;;;2.30;;
66175;SDS011;52977;44.816;20.538;2023-04-03T15:08:42;6.05;;;2.30;;
66175;SDS011;52977;44.816;20.538;2023-04-03T15:11:09;6.85;;;2.42;;
66175;SDS011;52977;44.816;20.538;2023-04-03T15:13:36;8.07;;;2.65;;
66175;SDS011;52977;44.816;20.538;2023-04-03T15:16:03;7.97;;;3.30;;
66175;SDS011;52977;44.816;20.538;2023-04-03T15:18:31;7.07;;;3.03;;
66175;SDS011;52977;44.816;20.538;2023-04-03T15:21:02;6.68;;;2.50;;
66175;SDS011;52977;44.816;20.538;2023-04-03T15:23:28;8.63;;;3.35;;
66175;SDS011;52977;44.816;20.538;2023-04-03T15:25:55;5.78;;;2.83;;
66175;SDS011;52977;44.816;20.538;2023-04-03T15:28:30;7.00;;;2.97;;
66175;SDS011;52977;44.816;20.538;2023-04-03T15:30:59;9.55;;;2.90;;
66175;SDS011;52977;44.816;20.538;2023-04-03T15:33:25;5.55;;;2.30;;
66175;SDS011;52977;44.816;20.538;2023-04-03T15:35:52;7.32;;;3.10;;
66175;SDS011;52977;44.816;20.538;2023-04-03T15:38:19;8.00;;;2.70;;
66175;SDS011;52977;44.816;20.538;2023-04-03T15:40:45;7.28;;;2.80;;
66175;SDS011;52977;44.816;20.538;2023-04-03T15:43:13;5.65;;;2.92;;
66175;SDS011;52977;44.816;20.538;2023-04-03T15:45:39;5.32;;;2.60;;
66175;SDS011;52977;44.816;20.538;2023-04-03T15:48:06;6.00;;;2.58;;
66175;SDS011;52977;44.816;20.538;2023-04-03T15:50:33;5.28;;;2.70;;
66175;SDS011;52977;44.816;20.538;2023-04-03T15:53:00;5.32;;;2.20;;
66175;SDS011;52977;44.816;20.538;2023-04-03T15:55:29;8.18;;;2.17;;
66175;SDS011;52977;44.816;20.538;2023-04-03T15:57:56;7.97;;;2.38;;
66175;SDS011;52977;44.816;20.538;2023-04-03T16:00:23;4.03;;;2.33;;
66175;SDS011;52977;44.816;20.538;2023-04-03T16:03:02;5.63;;;2.25;;
66175;SDS011;52977;44.816;20.538;2023-04-03T16:05:31;5.03;;;2.10;;
66175;SDS011;52977;44.816;20.538;2023-04-03T16:07:59;8.32;;;2.47;;
66175;SDS011;52977;44.816;20.538;2023-04-03T16:10:26;10.93;;;2.30;;
66175;SDS011;52977;44.816;20.538;2023-04-03T16:12:52;6.03;;;2.38;;
66175;SDS011;52977;44.816;20.538;2023-04-03T16:15:18;6.63;;;2.33;;
66175;SDS011;52977;44.816;20.538;2023-04-03T16:17:44;5.32;;;2.65;;
66175;SDS011;52977;44.816;20.538;2023-04-03T16:20:11;8.98;;;2.97;;
66175;SDS011;52977;44.816;20.538;2023-04-03T16:22:38;6.72;;;2.45;;
66175;SDS011;52977;44.816;20.538;2023-04-03T16:25:06;7.07;;;2.53;;
66175;SDS011;52977;44.816;20.538;2023-04-03T16:27:33;5.38;;;2.42;;
66175;SDS011;52977;44.816;20.538;2023-04-03T16:29:59;5.00;;;2.28;;
66175;SDS011;52977;44.816;20.538;2023-04-03T16:32:26;7.75;;;2.50;;
66175;SDS011;52977;44.816;20.538;2023-04-03T16:34:54;5.47;;;2.13;;
66175;SDS011;52977;44.816;20.538;2023-04-03T16:37:20;6.07;;;2.22;;
66175;SDS011;52977;44.816;20.538;2023-04-03T16:39:47;3.90;;;1.95;;
66175;SDS011;52977;44.816;20.538;2023-04-03T16:42:13;3.97;;;2.10;;